createdAt,value
2017-02-16T00:00:01.507Z,1023.11
2017-02-16T00:01:07.616Z,1023.06
2017-02-16T00:02:13.718Z,1023.08
2017-02-16T00:03:18.851Z,1023.1
2017-02-16T00:04:24.948Z,1023.09
2017-02-16T00:05:31.057Z,1023.05
2017-02-16T00:06:37.152Z,1023.09
2017-02-16T00:07:43.255Z,1023.08
2017-02-16T00:08:49.343Z,1023.09
2017-02-16T00:09:53.485Z,1023.11
2017-02-16T00:10:58.609Z,1023.06
2017-02-16T00:12:04.719Z,1023.09
2017-02-16T00:13:10.837Z,1023.07
2017-02-16T00:14:15.974Z,1023.03
2017-02-16T00:15:21.085Z,1023.04
2017-02-16T00:16:26.231Z,1023.04
2017-02-16T00:17:30.387Z,1023.02
2017-02-16T00:18:36.651Z,1023.03
2017-02-16T00:19:42.776Z,1023.05
2017-02-16T00:20:48.896Z,1023.04
2017-02-16T00:21:55.013Z,1023.05
2017-02-16T00:23:01.101Z,1023.05
2017-02-16T00:24:06.215Z,1023.05
2017-02-16T00:25:12.307Z,1023.02
2017-02-16T00:26:17.552Z,1023.03
2017-02-16T00:27:21.605Z,1023.04
2017-02-16T00:28:27.815Z,1023.04
2017-02-16T00:29:31.974Z,1023.01
2017-02-16T00:30:37.123Z,1023.01
2017-02-16T00:31:42.261Z,1023.04
2017-02-16T00:32:46.446Z,1023.03
2017-02-16T00:33:51.551Z,1023.03
2017-02-16T00:34:55.723Z,1023.03
2017-02-16T00:36:01.876Z,1023.08
2017-02-16T00:37:07.947Z,1023.02
2017-02-16T00:38:14.180Z,1023.02
2017-02-16T00:39:20.348Z,1023.06
2017-02-16T00:40:26.455Z,1023.02
2017-02-16T00:41:32.571Z,1023.02
2017-02-16T00:42:38.662Z,1023
2017-02-16T00:43:42.802Z,1022.99
2017-02-16T00:44:48.935Z,1022.97
2017-02-16T00:45:54.006Z,1023
2017-02-16T00:46:57.175Z,1023
2017-02-16T00:48:03.287Z,1023.02
2017-02-16T00:49:09.381Z,1022.98
2017-02-16T00:50:15.479Z,1022.98
2017-02-16T00:51:20.617Z,1023
2017-02-16T00:52:24.776Z,1023.03
2017-02-16T00:53:29.904Z,1023.01
2017-02-16T00:54:35.975Z,1023.04
2017-02-16T00:55:40.107Z,1023.03
2017-02-16T00:56:46.199Z,1023.01
2017-02-16T00:57:52.305Z,1023.02
2017-02-16T00:58:56.470Z,1023.02
2017-02-16T00:59:59.681Z,1023.01
2017-02-16T01:01:05.782Z,1023
2017-02-16T01:02:10.878Z,1023.13
2017-02-16T01:03:16.989Z,1023.1
2017-02-16T01:04:22.146Z,1023.12
2017-02-16T01:05:27.264Z,1023.15
2017-02-16T01:06:32.451Z,1023.16
2017-02-16T01:07:38.542Z,1023.17
2017-02-16T01:08:43.666Z,1023.13
2017-02-16T01:09:49.778Z,1023.15
2017-02-16T01:10:55.886Z,1023.14
2017-02-16T01:12:01.980Z,1023.15
2017-02-16T01:13:07.144Z,1023.13
2017-02-16T01:14:12.324Z,1023.15
2017-02-16T01:15:18.426Z,1023.15
2017-02-16T01:16:23.593Z,1023.15
2017-02-16T01:17:28.676Z,1023.2
2017-02-16T01:18:33.791Z,1023.15
2017-02-16T01:19:38.979Z,1023.17
2017-02-16T01:20:44.135Z,1023.19
2017-02-16T01:21:50.203Z,1023.16
2017-02-16T01:22:55.346Z,1023.16
2017-02-16T01:24:00.510Z,1023.16
2017-02-16T01:25:06.709Z,1023.23
2017-02-16T01:26:10.898Z,1023.24
2017-02-16T01:27:16.040Z,1023.29
2017-02-16T01:28:22.143Z,1023.27
2017-02-16T01:29:27.289Z,1023.29
2017-02-16T01:30:32.381Z,1023.3
2017-02-16T01:31:37.487Z,1023.29
2017-02-16T01:32:42.625Z,1023.3
2017-02-16T01:33:48.736Z,1023.28
2017-02-16T01:34:53.820Z,1023.35
2017-02-16T01:35:58.958Z,1023.31
2017-02-16T01:37:04.100Z,1023.33
2017-02-16T01:38:09.279Z,1023.31
2017-02-16T01:39:14.420Z,1023.3
2017-02-16T01:40:18.548Z,1023.35
2017-02-16T01:41:23.678Z,1023.31
2017-02-16T01:42:29.785Z,1023.32
2017-02-16T01:43:35.879Z,1023.31
2017-02-16T01:44:41.981Z,1023.31
2017-02-16T01:45:47.111Z,1023.29
2017-02-16T01:46:53.217Z,1023.28
2017-02-16T01:47:58.303Z,1023.31
2017-02-16T01:49:03.417Z,1023.27
2017-02-16T01:50:08.559Z,1023.21
2017-02-16T01:51:14.661Z,1023.21
2017-02-16T01:52:19.803Z,1023.23
2017-02-16T01:53:24.901Z,1023.25
2017-02-16T01:54:31.028Z,1023.23
2017-02-16T01:55:36.318Z,1023.21
2017-02-16T01:56:41.445Z,1023.2
2017-02-16T01:57:47.550Z,1023.19
2017-02-16T01:58:52.700Z,1023.19
2017-02-16T01:59:58.802Z,1023.15
2017-02-16T02:01:04.917Z,1023.13
2017-02-16T02:02:11.002Z,1023.15
2017-02-16T02:03:16.101Z,1023.13
2017-02-16T02:04:20.265Z,1023.15
2017-02-16T02:05:24.389Z,1023.1
2017-02-16T02:06:29.504Z,1023.1
2017-02-16T02:07:34.636Z,1023.14
2017-02-16T02:08:40.749Z,1023.13
2017-02-16T02:09:46.859Z,1023.14
2017-02-16T02:10:51.022Z,1023.13
2017-02-16T02:11:56.151Z,1023.19
2017-02-16T02:13:01.280Z,1023.17
2017-02-16T02:14:06.410Z,1023.21
2017-02-16T02:15:11.607Z,1023.17
2017-02-16T02:16:17.735Z,1023.14
2017-02-16T02:17:23.824Z,1023.13
2017-02-16T02:18:29.018Z,1023.07
2017-02-16T02:19:34.179Z,1023.1
2017-02-16T02:20:39.253Z,1023.12
2017-02-16T02:21:45.349Z,1023.15
2017-02-16T02:22:49.518Z,1023.12
2017-02-16T02:23:55.613Z,1023.08
2017-02-16T02:25:01.711Z,1023.1
2017-02-16T02:26:07.811Z,1023.13
2017-02-16T02:27:13.916Z,1023.14
2017-02-16T02:28:19.016Z,1023.15
2017-02-16T02:29:24.151Z,1023.11
2017-02-16T02:30:30.284Z,1023.05
2017-02-16T02:31:34.452Z,1023.1
2017-02-16T02:32:40.544Z,1023.05
2017-02-16T02:33:46.631Z,1023.02
2017-02-16T02:34:52.732Z,1023.05
2017-02-16T02:35:57.858Z,1023.04
2017-02-16T02:37:03.057Z,1023.04
2017-02-16T02:38:09.124Z,1023.05
2017-02-16T02:39:13.285Z,1023.04
2017-02-16T02:40:18.409Z,1023
2017-02-16T02:41:24.504Z,1022.97
2017-02-16T02:42:29.635Z,1022.95
2017-02-16T02:43:34.765Z,1022.97
2017-02-16T02:44:39.896Z,1022.91
2017-02-16T02:45:45.037Z,1022.94
2017-02-16T02:46:50.151Z,1022.9
2017-02-16T02:47:55.330Z,1022.93
2017-02-16T02:49:01.406Z,1022.91
2017-02-16T02:50:07.628Z,1022.93
2017-02-16T02:51:11.769Z,1022.89
2017-02-16T02:52:16.883Z,1022.88
2017-02-16T02:53:22.984Z,1022.88
2017-02-16T02:54:28.131Z,1022.83
2017-02-16T02:55:33.254Z,1022.84
2017-02-16T02:56:39.360Z,1022.87
2017-02-16T02:57:44.510Z,1022.87
2017-02-16T02:58:50.611Z,1022.85
2017-02-16T02:59:55.737Z,1022.8
2017-02-16T03:01:01.849Z,1022.82
2017-02-16T03:02:06.957Z,1022.82
2017-02-16T03:03:13.054Z,1022.83
2017-02-16T03:04:16.234Z,1022.92
2017-02-16T03:05:22.324Z,1022.9
2017-02-16T03:06:28.442Z,1022.92
2017-02-16T03:07:34.546Z,1022.96
2017-02-16T03:08:40.682Z,1022.93
2017-02-16T03:09:46.794Z,1022.95
2017-02-16T03:10:50.945Z,1022.92
2017-02-16T03:11:56.090Z,1022.95
2017-02-16T03:13:02.322Z,1022.9
2017-02-16T03:14:08.424Z,1022.89
2017-02-16T03:15:13.559Z,1022.91
2017-02-16T03:16:18.688Z,1022.9
2017-02-16T03:17:23.828Z,1022.9
2017-02-16T03:18:29.006Z,1022.91
2017-02-16T03:19:34.097Z,1022.89
2017-02-16T03:20:40.214Z,1022.86
2017-02-16T03:21:43.426Z,1022.9
2017-02-16T03:22:49.631Z,1022.89
2017-02-16T03:23:55.770Z,1022.87
2017-02-16T03:25:01.874Z,1022.84
2017-02-16T03:26:07.956Z,1022.81
2017-02-16T03:27:13.096Z,1022.8
2017-02-16T03:28:19.191Z,1022.78
2017-02-16T03:29:24.334Z,1022.76
2017-02-16T03:30:29.432Z,1022.74
2017-02-16T03:31:35.540Z,1022.74
2017-02-16T03:32:39.681Z,1022.73
2017-02-16T03:33:44.810Z,1022.73
2017-02-16T03:34:47.975Z,1022.74
2017-02-16T03:35:51.148Z,1022.76
2017-02-16T03:36:56.290Z,1022.79
2017-02-16T03:38:02.380Z,1022.8
2017-02-16T03:39:08.477Z,1022.83
2017-02-16T03:40:14.575Z,1022.78
2017-02-16T03:41:19.680Z,1022.8
2017-02-16T03:42:24.836Z,1022.8
2017-02-16T03:43:30.967Z,1022.76
2017-02-16T03:44:37.044Z,1022.74
2017-02-16T03:45:43.164Z,1022.72
2017-02-16T03:46:49.286Z,1022.75
2017-02-16T03:47:53.429Z,1022.79
2017-02-16T03:48:59.549Z,1022.76
2017-02-16T03:50:05.664Z,1022.79
2017-02-16T03:51:11.778Z,1022.75
2017-02-16T03:52:17.919Z,1022.74
2017-02-16T03:53:23.995Z,1022.76
2017-02-16T03:54:29.143Z,1022.77
2017-02-16T03:55:34.290Z,1022.76
2017-02-16T03:56:40.393Z,1022.76
2017-02-16T03:58:51.653Z,1022.78
2017-02-16T03:59:57.743Z,1022.78
2017-02-16T04:01:03.857Z,1022.78
2017-02-16T04:02:09.967Z,1022.79
2017-02-16T04:03:16.061Z,1022.84
2017-02-16T04:04:22.164Z,1022.8
2017-02-16T04:05:26.319Z,1022.83
2017-02-16T04:06:32.416Z,1022.86
2017-02-16T04:07:38.522Z,1022.87
2017-02-16T04:08:43.717Z,1022.85
2017-02-16T04:09:48.956Z,1022.85
2017-02-16T04:10:55.061Z,1022.83
2017-02-16T04:12:00.194Z,1022.83
2017-02-16T04:13:05.326Z,1022.85
2017-02-16T04:14:11.426Z,1022.82
2017-02-16T04:15:16.567Z,1022.88
2017-02-16T04:16:19.800Z,1022.85
2017-02-16T04:17:24.910Z,1022.83
2017-02-16T04:18:30.068Z,1022.85
2017-02-16T04:19:36.176Z,1022.83
2017-02-16T04:20:41.281Z,1022.85
2017-02-16T04:21:47.378Z,1022.87
2017-02-16T04:22:53.478Z,1022.85
2017-02-16T04:23:59.654Z,1022.86
2017-02-16T04:25:04.791Z,1022.83
2017-02-16T04:26:09.941Z,1022.83
2017-02-16T04:27:16.029Z,1022.81
2017-02-16T04:28:22.139Z,1022.82
2017-02-16T04:29:27.260Z,1022.81
2017-02-16T04:30:31.441Z,1022.82
2017-02-16T04:31:36.564Z,1022.79
2017-02-16T04:32:42.671Z,1022.81
2017-02-16T04:33:48.773Z,1022.8
2017-02-16T04:34:54.874Z,1022.76
2017-02-16T04:36:00.971Z,1022.77
2017-02-16T04:37:07.073Z,1022.75
2017-02-16T04:38:13.173Z,1022.74
2017-02-16T04:39:18.350Z,1022.75
2017-02-16T04:40:24.437Z,1022.74
2017-02-16T04:41:30.561Z,1022.75
2017-02-16T04:42:35.699Z,1022.74
2017-02-16T04:43:40.816Z,1022.73
2017-02-16T04:44:44.998Z,1022.74
2017-02-16T04:45:51.119Z,1022.74
2017-02-16T04:46:56.223Z,1022.74
2017-02-16T04:48:01.362Z,1022.71
2017-02-16T04:49:06.496Z,1022.75
2017-02-16T04:50:11.614Z,1022.75
2017-02-16T04:51:15.895Z,1022.81
2017-02-16T04:52:20.999Z,1022.77
2017-02-16T04:53:27.191Z,1022.77
2017-02-16T04:54:31.266Z,1022.81
2017-02-16T04:55:34.551Z,1022.75
2017-02-16T04:56:40.634Z,1022.7
2017-02-16T04:57:46.731Z,1022.75
2017-02-16T04:58:51.840Z,1022.75
2017-02-16T04:59:58.000Z,1022.75
2017-02-16T05:01:04.100Z,1022.72
2017-02-16T05:02:09.244Z,1022.78
2017-02-16T05:03:15.333Z,1022.82
2017-02-16T05:04:20.476Z,1022.77
2017-02-16T05:05:26.591Z,1022.78
2017-02-16T05:06:32.695Z,1022.82
2017-02-16T05:07:38.789Z,1022.85
2017-02-16T05:08:43.920Z,1022.78
2017-02-16T05:09:48.999Z,1022.79
2017-02-16T05:10:54.143Z,1022.79
2017-02-16T05:11:59.275Z,1022.79
2017-02-16T05:13:03.450Z,1022.8
2017-02-16T05:14:07.652Z,1022.81
2017-02-16T05:15:13.874Z,1022.78
2017-02-16T05:16:19.975Z,1022.76
2017-02-16T05:17:25.084Z,1022.73
2017-02-16T05:18:30.237Z,1022.76
2017-02-16T05:19:36.330Z,1022.77
2017-02-16T05:20:41.473Z,1022.77
2017-02-16T05:21:47.577Z,1022.79
2017-02-16T05:22:52.728Z,1022.78
2017-02-16T05:23:58.830Z,1022.75
2017-02-16T05:25:04.936Z,1022.72
2017-02-16T05:26:09.113Z,1022.71
2017-02-16T05:27:14.261Z,1022.71
2017-02-16T05:28:20.376Z,1022.71
2017-02-16T05:29:26.540Z,1022.68
2017-02-16T05:30:31.690Z,1022.69
2017-02-16T05:31:36.805Z,1022.68
2017-02-16T05:32:41.993Z,1022.7
2017-02-16T05:33:46.163Z,1022.63
2017-02-16T05:34:51.269Z,1022.64
2017-02-16T05:35:56.364Z,1022.6
2017-02-16T05:37:02.468Z,1022.61
2017-02-16T05:38:07.620Z,1022.62
2017-02-16T05:39:13.723Z,1022.62
2017-02-16T05:40:18.872Z,1022.61
2017-02-16T05:41:23.056Z,1022.61
2017-02-16T05:42:29.172Z,1022.6
2017-02-16T05:43:35.354Z,1022.58
2017-02-16T05:44:40.482Z,1022.58
2017-02-16T05:45:46.589Z,1022.6
2017-02-16T05:46:50.749Z,1022.61
2017-02-16T05:47:55.885Z,1022.61
2017-02-16T05:49:02.000Z,1022.6
2017-02-16T05:50:07.242Z,1022.63
2017-02-16T05:51:11.343Z,1022.62
2017-02-16T05:52:16.488Z,1022.61
2017-02-16T05:53:21.612Z,1022.61
2017-02-16T05:54:27.739Z,1022.59
2017-02-16T05:55:32.828Z,1022.61
2017-02-16T05:56:38.954Z,1022.63
2017-02-16T05:57:44.133Z,1022.66
2017-02-16T05:58:49.275Z,1022.65
2017-02-16T05:59:55.374Z,1022.66
2017-02-16T06:01:00.546Z,1022.64
2017-02-16T06:02:04.727Z,1022.64
2017-02-16T06:03:08.899Z,1022.63
2017-02-16T06:04:14.999Z,1022.63
2017-02-16T06:05:20.163Z,1022.64
2017-02-16T06:06:25.325Z,1022.66
2017-02-16T06:07:30.475Z,1022.64
2017-02-16T06:08:35.605Z,1022.63
2017-02-16T06:09:40.768Z,1022.66
2017-02-16T06:10:45.892Z,1022.64
2017-02-16T06:11:50.067Z,1022.61
2017-02-16T06:12:56.175Z,1022.6
2017-02-16T06:14:01.330Z,1022.61
2017-02-16T06:15:07.396Z,1022.6
2017-02-16T06:16:11.557Z,1022.57
2017-02-16T06:17:15.731Z,1022.59
2017-02-16T06:18:20.849Z,1022.57
2017-02-16T06:19:26.975Z,1022.6
2017-02-16T06:20:33.067Z,1022.59
2017-02-16T06:21:38.211Z,1022.59
2017-02-16T06:22:43.321Z,1022.62
2017-02-16T06:23:48.440Z,1022.6
2017-02-16T06:24:52.618Z,1022.64
2017-02-16T06:25:58.731Z,1022.64
2017-02-16T06:27:03.965Z,1022.61
2017-02-16T06:28:10.040Z,1022.6
2017-02-16T06:29:15.213Z,1022.59
2017-02-16T06:30:21.318Z,1022.58
2017-02-16T06:31:24.531Z,1022.63
2017-02-16T06:32:30.641Z,1022.61
2017-02-16T06:33:35.757Z,1022.63
2017-02-16T06:34:40.899Z,1022.65
2017-02-16T06:35:45.188Z,1022.69
2017-02-16T06:36:51.280Z,1022.66
2017-02-16T06:37:57.383Z,1022.65
2017-02-16T06:39:02.525Z,1022.65
2017-02-16T06:40:07.669Z,1022.63
2017-02-16T06:41:12.801Z,1022.59
2017-02-16T06:42:17.924Z,1022.61
2017-02-16T06:43:22.113Z,1022.6
2017-02-16T06:44:27.247Z,1022.58
2017-02-16T06:45:32.388Z,1022.59
2017-02-16T06:46:36.571Z,1022.62
2017-02-16T06:47:40.690Z,1022.63
2017-02-16T06:48:46.805Z,1022.61
2017-02-16T06:49:52.913Z,1022.6
2017-02-16T06:50:58.138Z,1022.65
2017-02-16T06:52:04.240Z,1022.65
2017-02-16T06:53:10.341Z,1022.65
2017-02-16T06:54:15.485Z,1022.65
2017-02-16T06:55:21.580Z,1022.68
2017-02-16T06:56:27.670Z,1022.66
2017-02-16T06:57:31.887Z,1022.66
2017-02-16T06:58:38.012Z,1022.63
2017-02-16T06:59:44.113Z,1022.69
2017-02-16T07:00:49.277Z,1022.67
2017-02-16T07:01:55.362Z,1022.71
2017-02-16T07:03:01.463Z,1022.66
2017-02-16T07:04:04.755Z,1022.66
2017-02-16T07:05:10.872Z,1022.66
2017-02-16T07:06:16.980Z,1022.63
2017-02-16T07:07:23.096Z,1022.65
2017-02-16T07:08:27.365Z,1022.64
2017-02-16T07:09:30.591Z,1022.65
2017-02-16T07:10:35.733Z,1022.66
2017-02-16T07:11:41.816Z,1022.66
2017-02-16T07:12:47.916Z,1022.62
2017-02-16T07:13:53.041Z,1022.64
2017-02-16T07:14:59.152Z,1022.68
2017-02-16T07:16:05.272Z,1022.66
2017-02-16T07:17:10.406Z,1022.66
2017-02-16T07:18:15.538Z,1022.61
2017-02-16T07:19:21.645Z,1022.62
2017-02-16T07:20:25.972Z,1022.64
2017-02-16T07:21:30.096Z,1022.66
2017-02-16T07:22:35.232Z,1022.65
2017-02-16T07:23:41.346Z,1022.69
2017-02-16T07:24:47.479Z,1022.7
2017-02-16T07:25:53.564Z,1022.74
2017-02-16T07:26:57.735Z,1022.72
2017-02-16T07:28:03.834Z,1022.68
2017-02-16T07:29:08.942Z,1022.68
2017-02-16T07:30:13.081Z,1022.73
2017-02-16T07:31:17.219Z,1022.72
2017-02-16T07:32:23.376Z,1022.73
2017-02-16T07:33:27.616Z,1022.68
2017-02-16T07:34:33.765Z,1022.67
2017-02-16T07:35:39.853Z,1022.67
2017-02-16T07:36:45.011Z,1022.7
2017-02-16T07:37:49.165Z,1022.66
2017-02-16T07:38:55.273Z,1022.65
2017-02-16T07:40:00.384Z,1022.65
2017-02-16T07:41:06.485Z,1022.64
2017-02-16T07:42:11.612Z,1022.62
2017-02-16T07:43:16.758Z,1022.62
2017-02-16T07:44:21.911Z,1022.66
2017-02-16T07:45:27.997Z,1022.7
2017-02-16T07:46:33.140Z,1022.73
2017-02-16T07:47:39.262Z,1022.74
2017-02-16T07:48:45.363Z,1022.71
2017-02-16T07:49:50.502Z,1022.66
2017-02-16T07:50:56.612Z,1022.68
2017-02-16T07:52:02.813Z,1022.68
2017-02-16T07:53:08.934Z,1022.71
2017-02-16T07:54:13.060Z,1022.76
2017-02-16T07:55:19.210Z,1022.69
2017-02-16T07:56:25.322Z,1022.73
2017-02-16T07:57:30.462Z,1022.73
2017-02-16T07:58:35.620Z,1022.77
2017-02-16T07:59:40.755Z,1022.7
2017-02-16T08:00:46.844Z,1022.63
2017-02-16T08:01:52.937Z,1022.61
2017-02-16T08:02:59.047Z,1022.62
2017-02-16T08:04:04.180Z,1022.66
2017-02-16T08:05:10.312Z,1022.65
2017-02-16T08:06:16.468Z,1022.62
2017-02-16T08:07:22.578Z,1022.63
2017-02-16T08:08:28.680Z,1022.58
2017-02-16T08:09:34.810Z,1022.58
2017-02-16T08:10:38.985Z,1022.52
2017-02-16T08:11:45.094Z,1022.59
2017-02-16T08:12:51.208Z,1022.53
2017-02-16T08:13:57.314Z,1022.6
2017-02-16T08:15:01.462Z,1022.61
2017-02-16T08:16:06.568Z,1022.59
2017-02-16T08:17:10.743Z,1022.56
2017-02-16T08:18:15.881Z,1022.56
2017-02-16T08:19:21.069Z,1022.55
2017-02-16T08:20:27.246Z,1022.55
2017-02-16T08:21:32.383Z,1022.58
2017-02-16T08:22:37.537Z,1022.51
2017-02-16T08:23:41.722Z,1022.55
2017-02-16T08:24:47.801Z,1022.55
2017-02-16T08:25:53.920Z,1022.56
2017-02-16T08:27:00.045Z,1022.54
2017-02-16T08:28:04.192Z,1022.54
2017-02-16T08:29:10.351Z,1022.6
2017-02-16T08:30:14.584Z,1022.59
2017-02-16T08:31:20.691Z,1022.61
2017-02-16T08:32:24.809Z,1022.59
2017-02-16T08:33:30.917Z,1022.56
2017-02-16T08:34:37.100Z,1022.57
2017-02-16T08:35:43.198Z,1022.54
2017-02-16T08:37:55.450Z,1022.54
2017-02-16T08:39:01.549Z,1022.53
2017-02-16T08:40:07.744Z,1022.55
2017-02-16T08:41:12.877Z,1022.55
2017-02-16T08:42:18.975Z,1022.54
2017-02-16T08:43:25.154Z,1022.57
2017-02-16T08:44:30.277Z,1022.56
2017-02-16T08:45:35.408Z,1022.57
2017-02-16T08:46:40.542Z,1022.57
2017-02-16T08:47:45.649Z,1022.6
2017-02-16T08:48:51.747Z,1022.6
2017-02-16T08:49:57.866Z,1022.59
2017-02-16T08:51:03.033Z,1022.56
2017-02-16T08:52:09.147Z,1022.58
2017-02-16T08:53:14.386Z,1022.61
2017-02-16T08:54:20.516Z,1022.63
2017-02-16T08:55:26.643Z,1022.66
2017-02-16T08:56:31.709Z,1022.61
2017-02-16T08:57:36.836Z,1022.62
2017-02-16T08:58:41.977Z,1022.63
2017-02-16T08:59:47.116Z,1022.73
2017-02-16T09:00:52.254Z,1022.77
2017-02-16T09:01:57.398Z,1022.72
2017-02-16T09:03:03.490Z,1022.7
2017-02-16T09:04:08.644Z,1022.73
2017-02-16T09:05:13.805Z,1022.67
2017-02-16T09:06:19.885Z,1022.66
2017-02-16T09:07:26.010Z,1022.68
2017-02-16T09:08:32.121Z,1022.68
2017-02-16T09:09:38.301Z,1022.6
2017-02-16T09:10:42.478Z,1022.63
2017-02-16T09:11:47.629Z,1022.52
2017-02-16T09:12:53.746Z,1022.61
2017-02-16T09:13:59.880Z,1022.63
2017-02-16T09:15:04.109Z,1022.65
2017-02-16T09:16:09.214Z,1022.6
2017-02-16T09:17:13.401Z,1022.68
2017-02-16T09:18:18.581Z,1022.67
2017-02-16T09:19:24.681Z,1022.63
2017-02-16T09:20:28.880Z,1022.59
2017-02-16T09:21:35.008Z,1022.6
2017-02-16T09:22:40.161Z,1022.55
2017-02-16T09:23:46.284Z,1022.52
2017-02-16T09:24:52.397Z,1022.55
2017-02-16T09:25:58.528Z,1022.53
2017-02-16T09:27:03.657Z,1022.45
2017-02-16T09:28:07.947Z,1022.47
2017-02-16T09:29:13.083Z,1022.51
2017-02-16T09:30:17.284Z,1022.55
2017-02-16T09:31:23.390Z,1022.48
2017-02-16T09:32:28.619Z,1022.46
2017-02-16T09:33:34.740Z,1022.41
2017-02-16T09:34:39.886Z,1022.42
2017-02-16T09:35:45.998Z,1022.38
2017-02-16T09:36:51.136Z,1022.42
2017-02-16T09:37:57.281Z,1022.41
2017-02-16T09:39:03.419Z,1022.44
2017-02-16T09:40:08.542Z,1022.53
2017-02-16T09:41:14.650Z,1022.45
2017-02-16T09:42:20.778Z,1022.47
2017-02-16T09:43:26.892Z,1022.45
2017-02-16T09:44:32.073Z,1022.48
2017-02-16T09:45:38.162Z,1022.46
2017-02-16T09:46:43.319Z,1022.43
2017-02-16T09:47:49.461Z,1022.38
2017-02-16T09:48:55.552Z,1022.37
2017-02-16T09:50:01.684Z,1022.33
2017-02-16T09:51:06.787Z,1022.38
2017-02-16T09:52:12.011Z,1022.4
2017-02-16T09:53:17.211Z,1022.36
2017-02-16T09:54:22.374Z,1022.38
2017-02-16T09:55:28.483Z,1022.37
2017-02-16T09:56:33.629Z,1022.34
2017-02-16T09:57:39.757Z,1022.33
2017-02-16T09:58:44.896Z,1022.32
2017-02-16T09:59:51.027Z,1022.29
2017-02-16T10:00:57.151Z,1022.28
2017-02-16T10:02:02.344Z,1022.25
2017-02-16T10:03:08.437Z,1022.27
2017-02-16T10:04:14.536Z,1022.25
2017-02-16T10:05:19.687Z,1022.29
2017-02-16T10:06:25.799Z,1022.24
2017-02-16T10:07:31.901Z,1022.3
2017-02-16T10:08:36.088Z,1022.24
2017-02-16T10:09:41.218Z,1022.26
2017-02-16T10:10:47.345Z,1022.28
2017-02-16T10:11:53.442Z,1022.31
2017-02-16T10:12:59.556Z,1022.28
2017-02-16T10:14:04.699Z,1022.3
2017-02-16T10:15:09.822Z,1022.27
2017-02-16T10:16:15.985Z,1022.28
2017-02-16T10:17:22.088Z,1022.23
2017-02-16T10:18:28.259Z,1022.17
2017-02-16T10:19:33.352Z,1022.18
2017-02-16T10:20:38.614Z,1022.2
2017-02-16T10:21:43.608Z,1022.21
2017-02-16T10:22:49.720Z,1022.2
2017-02-16T10:23:54.848Z,1022.18
2017-02-16T10:25:00.971Z,1022.21
2017-02-16T10:26:06.084Z,1022.2
2017-02-16T10:27:12.196Z,1022.2
2017-02-16T10:28:16.375Z,1022.23
2017-02-16T10:29:22.494Z,1022.2
2017-02-16T10:30:27.658Z,1022.21
2017-02-16T10:31:33.751Z,1022.22
2017-02-16T10:32:38.900Z,1022.17
2017-02-16T10:33:44.012Z,1022.17
2017-02-16T10:34:50.163Z,1022.19
2017-02-16T10:35:56.270Z,1022.17
2017-02-16T10:37:02.378Z,1022.18
2017-02-16T10:38:07.503Z,1022.14
2017-02-16T10:39:12.625Z,1022.21
2017-02-16T10:40:18.746Z,1022.18
2017-02-16T10:41:22.882Z,1022.2
2017-02-16T10:42:27.066Z,1022.18
2017-02-16T10:43:33.169Z,1022.17
2017-02-16T10:44:39.278Z,1022.19
2017-02-16T10:45:44.462Z,1022.2
2017-02-16T10:46:48.730Z,1022.17
2017-02-16T10:47:53.809Z,1022.2
2017-02-16T10:48:59.918Z,1022.16
2017-02-16T10:50:06.097Z,1022.17
2017-02-16T10:51:12.195Z,1022.13
2017-02-16T10:52:18.331Z,1022.13
2017-02-16T10:53:22.488Z,1022.12
2017-02-16T10:54:28.638Z,1022.12
2017-02-16T10:55:34.847Z,1022.14
2017-02-16T10:56:40.932Z,1022.07
2017-02-16T10:57:45.092Z,1022.07
2017-02-16T10:58:51.203Z,1022.08
2017-02-16T10:59:57.304Z,1022.08
2017-02-16T11:01:03.401Z,1022.02
2017-02-16T11:02:07.564Z,1021.96
2017-02-16T11:03:13.669Z,1021.95
2017-02-16T11:04:19.785Z,1021.99
2017-02-16T11:05:24.882Z,1021.95
2017-02-16T11:06:30.015Z,1021.95
2017-02-16T11:07:35.151Z,1021.9
2017-02-16T11:08:40.260Z,1021.92
2017-02-16T11:09:44.413Z,1021.88
2017-02-16T11:10:50.515Z,1021.85
2017-02-16T11:11:55.670Z,1021.87
2017-02-16T11:13:00.801Z,1021.86
2017-02-16T11:14:04.977Z,1021.87
2017-02-16T11:15:10.214Z,1021.77
2017-02-16T11:16:16.315Z,1021.84
2017-02-16T11:17:22.438Z,1021.77
2017-02-16T11:18:27.602Z,1021.79
2017-02-16T11:19:32.721Z,1021.72
2017-02-16T11:20:38.829Z,1021.7
2017-02-16T11:21:44.944Z,1021.68
2017-02-16T11:22:50.028Z,1021.65
2017-02-16T11:23:55.139Z,1021.64
2017-02-16T11:25:01.269Z,1021.65
2017-02-16T11:26:06.371Z,1021.64
2017-02-16T11:27:12.486Z,1021.6
2017-02-16T11:28:18.591Z,1021.64
2017-02-16T11:29:21.758Z,1021.61
2017-02-16T11:30:27.887Z,1021.64
2017-02-16T11:31:32.035Z,1021.58
2017-02-16T11:32:36.256Z,1021.56
2017-02-16T11:33:42.430Z,1021.54
2017-02-16T11:34:48.522Z,1021.51
2017-02-16T11:35:52.714Z,1021.48
2017-02-16T11:36:57.849Z,1021.52
2017-02-16T11:38:02.987Z,1021.48
2017-02-16T11:39:08.151Z,1021.45
2017-02-16T11:40:14.235Z,1021.45
2017-02-16T11:41:19.435Z,1021.44
2017-02-16T11:42:25.516Z,1021.44
2017-02-16T11:43:30.682Z,1021.44
2017-02-16T11:44:33.905Z,1021.43
2017-02-16T11:45:39.061Z,1021.41
2017-02-16T11:46:44.250Z,1021.39
2017-02-16T11:47:49.380Z,1021.4
2017-02-16T11:48:54.508Z,1021.38
2017-02-16T11:50:00.635Z,1021.38
2017-02-16T11:51:06.807Z,1021.35
2017-02-16T11:52:11.968Z,1021.33
2017-02-16T11:53:16.139Z,1021.3
2017-02-16T11:54:21.283Z,1021.29
2017-02-16T11:55:26.415Z,1021.31
2017-02-16T11:56:32.528Z,1021.28
2017-02-16T11:57:38.642Z,1021.25
2017-02-16T11:58:44.751Z,1021.23
2017-02-16T11:59:50.874Z,1021.22
2017-02-16T12:00:55.049Z,1021.26
2017-02-16T12:02:01.180Z,1021.19
2017-02-16T12:03:06.327Z,1021.17
2017-02-16T12:04:11.486Z,1021.2
2017-02-16T12:05:17.585Z,1021.16
2017-02-16T12:06:23.724Z,1021.15
2017-02-16T12:07:28.858Z,1021.17
2017-02-16T12:08:34.961Z,1021.16
2017-02-16T12:09:41.070Z,1021.12
2017-02-16T12:10:45.288Z,1021.13
2017-02-16T12:11:49.479Z,1021.1
2017-02-16T12:12:54.607Z,1021.09
2017-02-16T12:13:59.716Z,1021.11
2017-02-16T12:15:04.836Z,1021.11
2017-02-16T12:16:10.945Z,1021.12
2017-02-16T12:17:16.089Z,1021.11
2017-02-16T12:18:21.243Z,1021.08
2017-02-16T12:19:26.388Z,1021.07
2017-02-16T12:20:30.585Z,1021
2017-02-16T12:21:36.707Z,1021.01
2017-02-16T12:22:41.882Z,1021.02
2017-02-16T12:23:47.946Z,1020.99
2017-02-16T12:24:54.072Z,1021
2017-02-16T12:25:59.289Z,1021
2017-02-16T12:27:05.388Z,1021.03
2017-02-16T12:28:11.516Z,1021
2017-02-16T12:29:17.637Z,1021.03
2017-02-16T12:30:21.797Z,1021.02
2017-02-16T12:31:27.920Z,1021.01
2017-02-16T12:32:34.214Z,1020.98
2017-02-16T12:33:38.293Z,1021
2017-02-16T12:34:44.410Z,1020.97
2017-02-16T12:35:49.547Z,1021.03
2017-02-16T12:36:53.792Z,1020.98
2017-02-16T12:37:58.930Z,1021
2017-02-16T12:39:05.052Z,1020.95
2017-02-16T12:40:11.145Z,1020.95
2017-02-16T12:41:17.388Z,1020.93
2017-02-16T12:42:21.551Z,1020.89
2017-02-16T12:43:26.752Z,1020.89
2017-02-16T12:44:30.906Z,1020.86
2017-02-16T12:45:36.042Z,1020.89
2017-02-16T12:46:41.268Z,1020.82
2017-02-16T12:47:45.454Z,1020.85
2017-02-16T12:48:50.579Z,1020.82
2017-02-16T12:49:54.773Z,1020.86
2017-02-16T12:51:00.860Z,1020.78
2017-02-16T12:52:06.958Z,1020.75
2017-02-16T12:53:13.070Z,1020.69
2017-02-16T12:54:19.202Z,1020.76
2017-02-16T12:55:25.282Z,1020.77
2017-02-16T12:56:30.468Z,1020.79
2017-02-16T12:57:34.652Z,1020.76
2017-02-16T12:58:39.819Z,1020.79
2017-02-16T12:59:45.937Z,1020.72
2017-02-16T13:00:51.103Z,1020.73
2017-02-16T13:01:56.262Z,1020.73
2017-02-16T13:03:02.470Z,1020.74
2017-02-16T13:04:07.495Z,1020.71
2017-02-16T13:05:12.665Z,1020.69
2017-02-16T13:06:18.796Z,1020.68
2017-02-16T13:07:24.922Z,1020.7
2017-02-16T13:08:30.046Z,1020.69
2017-02-16T13:09:36.160Z,1020.61
2017-02-16T13:10:42.274Z,1020.57
2017-02-16T13:11:48.385Z,1020.57
2017-02-16T13:12:54.520Z,1020.59
2017-02-16T13:13:59.648Z,1020.54
2017-02-16T13:15:05.758Z,1020.58
2017-02-16T13:16:11.865Z,1020.52
2017-02-16T13:17:18.121Z,1020.53